createdAt,value
2022-07-29T00:00:01.720Z,9.443615
2022-07-29T00:01:01.672Z,9.443609
2022-07-29T00:02:01.682Z,9.443700
2022-07-29T00:03:01.765Z,9.443673
2022-07-29T00:04:01.722Z,9.443715
2022-07-29T00:05:01.670Z,9.443523
2022-07-29T00:06:01.695Z,9.443587
2022-07-29T00:07:01.656Z,9.443693
2022-07-29T00:08:01.672Z,9.443697
2022-07-29T00:09:01.630Z,9.443668
2022-07-29T00:10:01.652Z,9.443652
2022-07-29T00:11:01.648Z,9.443746
2022-07-29T00:12:01.629Z,9.443736
2022-07-29T00:13:01.603Z,9.443720
2022-07-29T00:14:01.596Z,9.443665
2022-07-29T00:15:01.611Z,9.443620
2022-07-29T00:16:04.503Z,9.443744
2022-07-29T00:17:01.596Z,9.443626
2022-07-29T00:18:01.558Z,9.443662
2022-07-29T00:19:02.420Z,9.443640
2022-07-29T00:20:02.563Z,9.443620
2022-07-29T00:21:01.559Z,9.443524
2022-07-29T00:22:01.548Z,9.443706
2022-07-29T00:23:01.571Z,9.443637
2022-07-29T00:24:01.544Z,9.443767
2022-07-29T00:25:01.532Z,9.443700
2022-07-29T00:26:01.512Z,9.443644
2022-07-29T00:27:01.540Z,9.443673
2022-07-29T00:28:01.517Z,9.443645
2022-07-29T00:29:32.543Z,9.443656
2022-07-29T00:30:03.519Z,9.443650
2022-07-29T00:31:01.522Z,9.443611
2022-07-29T00:32:01.623Z,9.443630
2022-07-29T00:33:01.491Z,9.443581
2022-07-29T00:34:01.470Z,9.443552
2022-07-29T00:35:01.478Z,9.443626
2022-07-29T00:36:01.479Z,9.443643
2022-07-29T00:37:01.457Z,9.443651
2022-07-29T00:38:02.132Z,9.443680
2022-07-29T00:39:01.454Z,9.443694
2022-07-29T00:40:01.442Z,9.443696
2022-07-29T00:41:01.432Z,9.443707
2022-07-29T00:42:01.419Z,9.443687
2022-07-29T00:43:01.426Z,9.443632
2022-07-29T00:44:01.425Z,9.443553
2022-07-29T00:45:01.438Z,9.443572
2022-07-29T00:46:01.408Z,9.443742
2022-07-29T00:47:01.485Z,9.443748
2022-07-29T00:48:01.459Z,9.443693
2022-07-29T00:49:01.450Z,9.443700
2022-07-29T00:50:01.395Z,9.443698
2022-07-29T00:51:01.370Z,9.443672
2022-07-29T00:52:01.358Z,9.443719
2022-07-29T00:53:01.377Z,9.443738
2022-07-29T00:54:01.390Z,9.443690
2022-07-29T00:55:06.353Z,9.443676
2022-07-29T00:56:03.386Z,9.443668
2022-07-29T00:57:01.330Z,9.443670
2022-07-29T00:58:01.320Z,9.443686
2022-07-29T00:59:01.338Z,9.443681
2022-07-29T01:00:01.374Z,9.443702
2022-07-29T01:01:01.374Z,9.443720
2022-07-29T01:02:01.363Z,9.443707
2022-07-29T01:03:01.303Z,9.443707
2022-07-29T01:04:01.295Z,9.443683
2022-07-29T01:05:01.329Z,9.443661
2022-07-29T01:06:01.283Z,9.443689
2022-07-29T01:07:01.403Z,9.443696
2022-07-29T01:08:01.277Z,9.443657
2022-07-29T01:09:01.255Z,9.443638
2022-07-29T01:10:01.264Z,9.443689
2022-07-29T01:11:01.270Z,9.443676
2022-07-29T01:12:01.240Z,9.443754
2022-07-29T01:13:01.222Z,9.443694
2022-07-29T01:14:01.271Z,9.443656
2022-07-29T01:15:01.259Z,9.443650
2022-07-29T01:16:01.297Z,9.443678
2022-07-29T01:17:01.214Z,9.443697
2022-07-29T01:18:01.196Z,9.443679
2022-07-29T01:19:01.210Z,9.443704
2022-07-29T01:20:01.203Z,9.443711
2022-07-29T01:21:01.218Z,9.443710
2022-07-29T01:22:01.175Z,9.443734
2022-07-29T01:23:01.204Z,9.443755
2022-07-29T01:24:01.210Z,9.443695
2022-07-29T01:25:01.203Z,9.443678
2022-07-29T01:26:34.582Z,9.443658
2022-07-29T01:27:01.167Z,9.443637
2022-07-29T01:28:01.238Z,9.443695
2022-07-29T01:29:01.135Z,9.443768
2022-07-29T01:30:02.135Z,9.443721
2022-07-29T01:31:01.179Z,9.443683
2022-07-29T01:32:01.391Z,9.443679
2022-07-29T01:33:01.105Z,9.443786
2022-07-29T01:34:01.123Z,9.443764
2022-07-29T01:35:01.102Z,9.443634
2022-07-29T01:36:01.091Z,9.443673
2022-07-29T01:37:01.085Z,9.443648
2022-07-29T01:38:01.125Z,9.443718
2022-07-29T01:39:01.065Z,9.443649
2022-07-29T01:40:01.075Z,9.443568
2022-07-29T01:41:01.083Z,9.443732
2022-07-29T01:42:01.075Z,9.443670
2022-07-29T01:43:01.034Z,9.443636
2022-07-29T01:44:01.042Z,9.443625
2022-07-29T01:45:01.082Z,9.443617
2022-07-29T01:46:01.042Z,9.443619
2022-07-29T01:47:01.098Z,9.443521
2022-07-29T01:48:01.011Z,9.443489
2022-07-29T01:49:01.060Z,9.443563
2022-07-29T01:50:00.980Z,9.443551
2022-07-29T01:51:01.034Z,9.443552
2022-07-29T01:52:00.987Z,9.443613
2022-07-29T01:53:00.974Z,9.443655
2022-07-29T01:54:00.969Z,9.443637
2022-07-29T01:55:00.962Z,9.443604
2022-07-29T01:56:00.967Z,9.443579
2022-07-29T01:57:00.979Z,9.443576
2022-07-29T01:58:00.936Z,9.443600
2022-07-29T01:59:00.983Z,9.443619
2022-07-29T02:00:00.927Z,9.443638
2022-07-29T02:01:00.956Z,9.443669
2022-07-29T02:02:01.045Z,9.443654
2022-07-29T02:03:00.914Z,9.443667
2022-07-29T02:04:00.917Z,9.443658
2022-07-29T02:05:01.045Z,9.443724
2022-07-29T02:06:00.914Z,9.443776
2022-07-29T02:07:00.983Z,9.443754
2022-07-29T02:08:00.882Z,9.443770
2022-07-29T02:09:00.879Z,9.443741
2022-07-29T02:10:00.916Z,9.443746
2022-07-29T02:11:00.918Z,9.443747
2022-07-29T02:12:00.867Z,9.443728
2022-07-29T02:13:00.849Z,9.443728
2022-07-29T02:14:00.850Z,9.443724
2022-07-29T02:15:00.847Z,9.443763
2022-07-29T02:16:00.913Z,9.443781
2022-07-29T02:17:01.854Z,9.443746
2022-07-29T02:18:00.809Z,9.443769
2022-07-29T02:19:00.818Z,9.443769
2022-07-29T02:20:00.823Z,9.443756
2022-07-29T02:21:00.785Z,9.443738
2022-07-29T02:22:00.799Z,9.443765
2022-07-29T02:23:00.791Z,9.443773
2022-07-29T02:24:00.848Z,9.443780
2022-07-29T02:25:00.836Z,9.443775
2022-07-29T02:26:00.771Z,9.443775
2022-07-29T02:27:00.797Z,9.443778
2022-07-29T02:28:00.749Z,9.443791
2022-07-29T02:29:00.743Z,9.443808
2022-07-29T02:30:01.414Z,9.443798
2022-07-29T02:31:00.762Z,9.443793
2022-07-29T02:32:00.729Z,9.443773
2022-07-29T02:33:00.728Z,9.443720
2022-07-29T02:34:00.789Z,9.443748
2022-07-29T02:35:00.726Z,9.443696
2022-07-29T02:36:00.730Z,9.443657
2022-07-29T02:37:00.702Z,9.443627
2022-07-29T02:38:00.750Z,9.443658
2022-07-29T02:39:00.678Z,9.443680
2022-07-29T02:40:00.679Z,9.443709
2022-07-29T02:41:00.671Z,9.443713
2022-07-29T02:42:00.649Z,9.443729
2022-07-29T02:43:00.703Z,9.443751
2022-07-29T02:44:00.641Z,9.443761
2022-07-29T02:45:00.635Z,9.443772
2022-07-29T02:46:00.705Z,9.443765
2022-07-29T02:47:00.703Z,9.443714
2022-07-29T02:48:00.623Z,9.443720
2022-07-29T02:49:00.657Z,9.443691
2022-07-29T02:50:00.838Z,9.443690
2022-07-29T02:51:00.596Z,9.443650
2022-07-29T02:52:00.585Z,9.443703
2022-07-29T02:53:00.629Z,9.443713
2022-07-29T02:54:00.581Z,9.443771
2022-07-29T02:55:00.583Z,9.443698
2022-07-29T02:56:00.565Z,9.443659
2022-07-29T02:57:00.562Z,9.443641
2022-07-29T02:58:00.544Z,9.443723
2022-07-29T02:59:00.542Z,9.443708
2022-07-29T03:00:00.550Z,9.443692
2022-07-29T03:01:00.518Z,9.443663
2022-07-29T03:02:00.610Z,9.443598
2022-07-29T03:03:00.516Z,9.443624
2022-07-29T03:04:00.514Z,9.443691
2022-07-29T03:05:00.605Z,9.443647
2022-07-29T03:06:00.477Z,9.443659
2022-07-29T03:07:00.482Z,9.443748
2022-07-29T03:08:00.468Z,9.443732
2022-07-29T03:09:00.466Z,9.443735
2022-07-29T03:10:00.489Z,9.443719
2022-07-29T03:11:00.445Z,9.443686
2022-07-29T03:12:00.453Z,9.443705
2022-07-29T03:13:00.445Z,9.443704
2022-07-29T03:14:00.497Z,9.443724
2022-07-29T03:15:00.449Z,9.443669
2022-07-29T03:16:00.562Z,9.443523
2022-07-29T03:17:00.420Z,9.443748
2022-07-29T03:18:00.409Z,9.443652
2022-07-29T03:19:00.392Z,9.443735
2022-07-29T03:20:00.421Z,9.443788
2022-07-29T03:21:00.402Z,9.443830
2022-07-29T03:22:00.384Z,9.443746
2022-07-29T03:23:00.371Z,9.443741
2022-07-29T03:24:00.388Z,9.443769
2022-07-29T03:25:00.356Z,9.443755
2022-07-29T03:26:00.386Z,9.443722
2022-07-29T03:27:00.417Z,9.443743
2022-07-29T03:28:00.336Z,9.443786
2022-07-29T03:29:00.336Z,9.443781
2022-07-29T03:30:00.331Z,9.443706
2022-07-29T03:31:00.395Z,9.443712
2022-07-29T03:32:00.317Z,9.443759
2022-07-29T03:33:00.314Z,9.443817
2022-07-29T03:34:00.361Z,9.443817
2022-07-29T03:35:00.309Z,9.443833
2022-07-29T03:36:00.288Z,9.443786
2022-07-29T03:37:00.813Z,9.443767
2022-07-29T03:38:00.281Z,9.443737
2022-07-29T03:39:00.305Z,9.443794
2022-07-29T03:40:00.269Z,9.443771
2022-07-29T03:41:00.261Z,9.443779
2022-07-29T03:42:00.257Z,9.443768
2022-07-29T03:43:00.253Z,9.443774
2022-07-29T03:44:00.248Z,9.443792
2022-07-29T03:45:00.233Z,9.443785
2022-07-29T03:46:00.287Z,9.443789
2022-07-29T03:47:00.225Z,9.443752
2022-07-29T03:48:01.142Z,9.443710
2022-07-29T03:49:01.274Z,9.443724
2022-07-29T03:50:00.237Z,9.443722
2022-07-29T03:51:00.190Z,9.443783
2022-07-29T03:52:00.186Z,9.443785
2022-07-29T03:53:00.214Z,9.443796
2022-07-29T03:54:00.174Z,9.443756
2022-07-29T03:55:00.203Z,9.443727
2022-07-29T03:56:00.169Z,9.443783
2022-07-29T03:57:00.169Z,9.443821
2022-07-29T03:58:00.152Z,9.443788
2022-07-29T03:59:00.201Z,9.443720
2022-07-29T04:00:01.149Z,9.443720
2022-07-29T04:01:00.130Z,9.443669
2022-07-29T04:02:00.170Z,9.443650
2022-07-29T04:03:00.139Z,9.443710
2022-07-29T04:04:00.243Z,9.443710
2022-07-29T04:05:00.115Z,9.443738
2022-07-29T04:06:00.086Z,9.443744
2022-07-29T04:07:00.097Z,9.443643
2022-07-29T04:08:00.130Z,9.443721
2022-07-29T04:09:00.083Z,9.443737
2022-07-29T04:10:00.086Z,9.443722
2022-07-29T04:11:00.111Z,9.443642
2022-07-29T04:12:03.565Z,9.443571
2022-07-29T04:13:00.076Z,9.443686
2022-07-29T04:14:00.041Z,9.443671
2022-07-29T04:15:00.094Z,9.443727
2022-07-29T04:16:00.071Z,9.443756
2022-07-29T04:17:00.016Z,9.443810
2022-07-29T04:18:00.132Z,9.443751
2022-07-29T04:19:00.009Z,9.443715
2022-07-29T04:20:00.068Z,9.443703
2022-07-29T04:21:00.012Z,9.443728
2022-07-29T04:21:59.986Z,9.443749
2022-07-29T04:23:00.008Z,9.443685
2022-07-29T04:23:59.981Z,9.443668
2022-07-29T04:25:03.671Z,9.443762
2022-07-29T04:26:01.776Z,9.443743
2022-07-29T04:26:59.949Z,9.443709
2022-07-29T04:28:00.013Z,9.443686
2022-07-29T04:28:59.969Z,9.443684
2022-07-29T04:29:59.941Z,9.443710
2022-07-29T04:31:00.020Z,9.443701
2022-07-29T04:31:59.915Z,9.443617
2022-07-29T04:32:59.952Z,9.443659
2022-07-29T04:33:59.917Z,9.443681
2022-07-29T04:34:59.898Z,9.443722
2022-07-29T04:35:59.926Z,9.443705
2022-07-29T04:36:59.885Z,9.443705
2022-07-29T04:37:59.895Z,9.443711
2022-07-29T04:38:59.871Z,9.443686
2022-07-29T04:39:59.863Z,9.443558
2022-07-29T04:40:59.894Z,9.443812
2022-07-29T04:41:59.869Z,9.443813
2022-07-29T04:42:59.838Z,9.443751
2022-07-29T04:43:59.836Z,9.443710
2022-07-29T04:45:01.272Z,9.443680
2022-07-29T04:45:59.907Z,9.443710
2022-07-29T04:46:59.826Z,9.443713
2022-07-29T04:47:59.817Z,9.443747
2022-07-29T04:48:59.956Z,9.443740
2022-07-29T04:49:59.800Z,9.443768
2022-07-29T04:50:59.828Z,9.443705
2022-07-29T04:51:59.817Z,9.443711
2022-07-29T04:52:59.779Z,9.443688
2022-07-29T04:53:59.802Z,9.443708
2022-07-29T04:55:00.758Z,9.443722
2022-07-29T04:55:59.755Z,9.443760
2022-07-29T04:56:59.801Z,9.443815
2022-07-29T04:57:59.730Z,9.443749
2022-07-29T04:58:59.766Z,9.443745
2022-07-29T04:59:59.753Z,9.443721
2022-07-29T05:00:59.722Z,9.443666
2022-07-29T05:01:59.837Z,9.443640
2022-07-29T05:02:59.770Z,9.443646
2022-07-29T05:04:00.713Z,9.443642
2022-07-29T05:05:01.337Z,9.443739
2022-07-29T05:05:59.684Z,9.443767
2022-07-29T05:06:59.680Z,9.443718
2022-07-29T05:07:59.681Z,9.443723
2022-07-29T05:08:59.676Z,9.443754
2022-07-29T05:09:59.655Z,9.443760
2022-07-29T05:11:01.767Z,9.443707
2022-07-29T05:12:00.651Z,9.443687
2022-07-29T05:12:59.660Z,9.443605
2022-07-29T05:13:59.654Z,9.443573
2022-07-29T05:14:59.621Z,9.443677
2022-07-29T05:15:59.737Z,9.443666
2022-07-29T05:16:59.606Z,9.443633
2022-07-29T05:17:59.604Z,9.443644
2022-07-29T05:18:59.621Z,9.443646
2022-07-29T05:19:59.618Z,9.443708
2022-07-29T05:20:59.604Z,9.443714
2022-07-29T05:21:59.574Z,9.443665
2022-07-29T05:22:59.586Z,9.443718
2022-07-29T05:23:59.582Z,9.443789
2022-07-29T05:24:59.564Z,9.443729
2022-07-29T05:25:59.555Z,9.443714
2022-07-29T05:26:59.560Z,9.443674
2022-07-29T05:27:59.623Z,9.443673
2022-07-29T05:28:59.566Z,9.443670
2022-07-29T05:29:59.540Z,9.443681
2022-07-29T05:30:59.581Z,9.443673
2022-07-29T05:31:59.507Z,9.443690
2022-07-29T05:32:59.504Z,9.443685
2022-07-29T05:34:00.449Z,9.443702
2022-07-29T05:34:59.498Z,9.443725
2022-07-29T05:36:00.919Z,9.443714
2022-07-29T05:37:00.503Z,9.443706
2022-07-29T05:37:59.490Z,9.443699
2022-07-29T05:39:01.452Z,9.443676
2022-07-29T05:39:59.465Z,9.443644
2022-07-29T05:40:59.464Z,9.443718
2022-07-29T05:41:59.479Z,9.443639
2022-07-29T05:42:59.432Z,9.443738
2022-07-29T05:43:59.492Z,9.443776
2022-07-29T05:44:59.441Z,9.443707
2022-07-29T05:45:59.539Z,9.443739
2022-07-29T05:46:59.402Z,9.443783
2022-07-29T05:47:59.439Z,9.443755
2022-07-29T05:48:59.487Z,9.443706
2022-07-29T05:49:59.419Z,9.443676
2022-07-29T05:50:59.414Z,9.443698
2022-07-29T05:51:59.389Z,9.443795
2022-07-29T05:52:59.385Z,9.443746
2022-07-29T05:53:59.400Z,9.443752
2022-07-29T05:54:59.380Z,9.443737
2022-07-29T05:55:59.388Z,9.443743
2022-07-29T05:56:59.352Z,9.443722
2022-07-29T05:57:59.343Z,9.443666
2022-07-29T05:58:59.333Z,9.443752
2022-07-29T05:59:59.348Z,9.443703
2022-07-29T06:00:59.385Z,9.443744
2022-07-29T06:01:59.352Z,9.443707
2022-07-29T06:02:59.573Z,9.443809
2022-07-29T06:03:59.349Z,9.443791
2022-07-29T06:04:59.375Z,9.443890
2022-07-29T06:05:59.302Z,9.443902
2022-07-29T06:06:59.322Z,9.443902
2022-07-29T06:07:59.289Z,9.443859
2022-07-29T06:08:59.270Z,9.443826
2022-07-29T06:09:59.326Z,9.443845
2022-07-29T06:10:59.259Z,9.443850
2022-07-29T06:11:59.255Z,9.443856
2022-07-29T06:12:59.310Z,9.443812
2022-07-29T06:13:59.240Z,9.443820
2022-07-29T06:14:59.237Z,9.443830
2022-07-29T06:15:59.391Z,9.443865
2022-07-29T06:16:59.208Z,9.443833
2022-07-29T06:18:01.207Z,9.443783
2022-07-29T06:18:59.241Z,9.443804
2022-07-29T06:19:59.208Z,9.443783
2022-07-29T06:20:59.215Z,9.443766
2022-07-29T06:21:59.201Z,9.443711
2022-07-29T06:22:59.231Z,9.443735
2022-07-29T06:23:59.196Z,9.443734
2022-07-29T06:24:59.181Z,9.443688
2022-07-29T06:25:59.161Z,9.443783
2022-07-29T06:26:59.204Z,9.443775
2022-07-29T06:27:59.203Z,9.443770
2022-07-29T06:28:59.140Z,9.443722
2022-07-29T06:29:59.160Z,9.443648
2022-07-29T06:30:59.223Z,9.443682
2022-07-29T06:31:59.128Z,9.443684
2022-07-29T06:32:59.167Z,9.443649
2022-07-29T06:33:59.114Z,9.443691
2022-07-29T06:35:24.363Z,9.443661
2022-07-29T06:36:01.132Z,9.443643
2022-07-29T06:36:59.115Z,9.443690
2022-07-29T06:37:59.749Z,9.443777
2022-07-29T06:38:59.082Z,9.443725
2022-07-29T06:39:59.699Z,9.443732
2022-07-29T06:41:00.080Z,9.443688
2022-07-29T06:41:59.136Z,9.443639
2022-07-29T06:42:59.056Z,9.443689
2022-07-29T06:43:59.069Z,9.443752
2022-07-29T06:44:59.067Z,9.443763
2022-07-29T06:45:59.098Z,9.443633
2022-07-29T06:46:59.031Z,9.443618
2022-07-29T06:47:59.043Z,9.443683
2022-07-29T06:48:59.123Z,9.443769
2022-07-29T06:49:59.018Z,9.443774
2022-07-29T06:50:59.019Z,9.443583
2022-07-29T06:51:58.995Z,9.443568
2022-07-29T06:52:59.015Z,9.443555
2022-07-29T06:54:02.338Z,9.443659
2022-07-29T06:54:58.965Z,9.443579
2022-07-29T06:55:58.975Z,9.443693
2022-07-29T06:56:58.982Z,9.443602
2022-07-29T06:57:58.958Z,9.443743
2022-07-29T06:58:58.993Z,9.443707
2022-07-29T06:59:58.946Z,9.443518
2022-07-29T07:00:59.049Z,9.443467
2022-07-29T07:01:59.033Z,9.443572
2022-07-29T07:02:58.923Z,9.443382
2022-07-29T07:03:58.937Z,9.443645
2022-07-29T07:04:58.917Z,9.443988
2022-07-29T07:05:58.926Z,9.443849
2022-07-29T07:06:58.937Z,9.443674
2022-07-29T07:07:58.934Z,9.443680
2022-07-29T07:08:58.951Z,9.443791
2022-07-29T07:09:58.941Z,9.443715
2022-07-29T07:10:58.900Z,9.443580
2022-07-29T07:11:58.950Z,9.443574
2022-07-29T07:12:58.870Z,9.443517
2022-07-29T07:14:03.003Z,9.443604
2022-07-29T07:14:59.875Z,9.443626
2022-07-29T07:15:58.841Z,9.443671
2022-07-29T07:16:58.889Z,9.443666
2022-07-29T07:17:58.849Z,9.443641
2022-07-29T07:18:58.846Z,9.443659
2022-07-29T07:19:58.829Z,9.443677
2022-07-29T07:20:58.826Z,9.443693
2022-07-29T07:21:58.878Z,9.443667
2022-07-29T07:22:58.803Z,9.443719
2022-07-29T07:23:58.788Z,9.443661
2022-07-29T07:24:58.811Z,9.443685
2022-07-29T07:25:58.879Z,9.443639
2022-07-29T07:26:58.783Z,9.443655
2022-07-29T07:27:58.787Z,9.443683
2022-07-29T07:28:58.771Z,9.443762
2022-07-29T07:29:58.803Z,9.443748
2022-07-29T07:30:58.803Z,9.443725
2022-07-29T07:32:01.041Z,9.443672
2022-07-29T07:32:59.756Z,9.443624
2022-07-29T07:33:58.727Z,9.443715
2022-07-29T07:34:58.831Z,9.443714
2022-07-29T07:35:58.741Z,9.443688
2022-07-29T07:36:58.720Z,9.443676
2022-07-29T07:37:58.697Z,9.443687
2022-07-29T07:38:58.710Z,9.443634
2022-07-29T07:39:58.710Z,9.443601
2022-07-29T07:40:58.703Z,9.443649
2022-07-29T07:41:58.695Z,9.443665
2022-07-29T07:42:58.671Z,9.443730
2022-07-29T07:43:58.669Z,9.443748
2022-07-29T07:45:12.946Z,9.443750
2022-07-29T07:46:00.764Z,9.443719
2022-07-29T07:46:58.673Z,9.443721
2022-07-29T07:47:59.640Z,9.443709
2022-07-29T07:48:58.713Z,9.443708
2022-07-29T07:49:58.643Z,9.443726
2022-07-29T07:50:58.628Z,9.443709
2022-07-29T07:51:58.624Z,9.443709
2022-07-29T07:52:58.934Z,9.443720
2022-07-29T07:53:58.613Z,9.443743
2022-07-29T07:54:58.626Z,9.443780
2022-07-29T07:56:13.921Z,9.443773
2022-07-29T07:57:00.693Z,9.443743
2022-07-29T07:57:58.566Z,9.443730
2022-07-29T07:58:58.558Z,9.443742
2022-07-29T07:59:58.558Z,9.443713
2022-07-29T08:00:58.659Z,9.443710
2022-07-29T08:01:58.843Z,9.443738
2022-07-29T08:02:58.631Z,9.443761
2022-07-29T08:03:58.561Z,9.443747
2022-07-29T08:04:58.515Z,9.443750
2022-07-29T08:05:58.540Z,9.443754
2022-07-29T08:06:59.431Z,9.443763
2022-07-29T08:07:58.491Z,9.443739
2022-07-29T08:09:19.536Z,9.443725
2022-07-29T08:10:00.534Z,9.443764
2022-07-29T08:10:58.513Z,9.443743
2022-07-29T08:11:58.528Z,9.443716
2022-07-29T08:12:58.463Z,9.443757
2022-07-29T08:13:58.466Z,9.443761
2022-07-29T08:14:58.451Z,9.443777
2022-07-29T08:15:58.925Z,9.443757
2022-07-29T08:16:58.488Z,9.443727
2022-07-29T08:17:58.457Z,9.443763
2022-07-29T08:18:58.469Z,9.443710
2022-07-29T08:19:58.426Z,9.443776
2022-07-29T08:20:58.448Z,9.443772
2022-07-29T08:21:58.443Z,9.443721
2022-07-29T08:22:58.462Z,9.443718
2022-07-29T08:24:02.887Z,9.443715
2022-07-29T08:25:00.454Z,9.443737
2022-07-29T08:25:58.386Z,9.443750
2022-07-29T08:26:58.430Z,9.443746
2022-07-29T08:27:58.448Z,9.443717
2022-07-29T08:28:58.391Z,9.443688
2022-07-29T08:29:58.368Z,9.443739
2022-07-29T08:30:58.438Z,9.443731
2022-07-29T08:31:58.400Z,9.443737
2022-07-29T08:32:58.431Z,9.443743
2022-07-29T08:33:58.483Z,9.443751
2022-07-29T08:34:58.339Z,9.443729
2022-07-29T08:35:58.365Z,9.443727
2022-07-29T08:36:58.339Z,9.443743
2022-07-29T08:37:58.472Z,9.443689
2022-07-29T08:38:58.312Z,9.443698
2022-07-29T08:39:58.327Z,9.443707
2022-07-29T08:40:58.939Z,9.443765
2022-07-29T08:41:59.127Z,9.443787
2022-07-29T08:42:58.282Z,9.443755
2022-07-29T08:43:59.269Z,9.443736
2022-07-29T08:44:58.282Z,9.443801
2022-07-29T08:45:58.413Z,9.443789
2022-07-29T08:46:58.341Z,9.443747
2022-07-29T08:47:58.248Z,9.443732
2022-07-29T08:48:58.306Z,9.443719
2022-07-29T08:49:58.266Z,9.443707
2022-07-29T08:50:58.302Z,9.443729
2022-07-29T08:51:59.271Z,9.443724
2022-07-29T08:53:00.037Z,9.443719
2022-07-29T08:53:59.209Z,9.443731
2022-07-29T08:54:58.203Z,9.443712
2022-07-29T08:55:58.202Z,9.443695
2022-07-29T08:56:58.201Z,9.443682
2022-07-29T08:57:58.175Z,9.443665
2022-07-29T08:58:58.192Z,9.443718
2022-07-29T08:59:58.254Z,9.443751
2022-07-29T09:00:58.385Z,9.443764
2022-07-29T09:01:58.504Z,9.443680
2022-07-29T09:02:58.151Z,9.443669
2022-07-29T09:03:58.231Z,9.443691
2022-07-29T09:04:58.132Z,9.443731
2022-07-29T09:05:58.138Z,9.443661
2022-07-29T09:06:58.105Z,9.443709
2022-07-29T09:07:58.143Z,9.443705
2022-07-29T09:08:58.106Z,9.443722
2022-07-29T09:09:58.133Z,9.443720
2022-07-29T09:10:58.103Z,9.443741
2022-07-29T09:11:58.323Z,9.443743
2022-07-29T09:12:58.081Z,9.443764
2022-07-29T09:13:58.072Z,9.443769
2022-07-29T09:14:58.061Z,9.443706
2022-07-29T09:15:58.110Z,9.443620
2022-07-29T09:16:58.114Z,9.443675
2022-07-29T09:17:58.081Z,9.443697
2022-07-29T09:19:00.170Z,9.443735
2022-07-29T09:19:58.042Z,9.443701
2022-07-29T09:20:58.033Z,9.443662
2022-07-29T09:21:58.057Z,9.443666
2022-07-29T09:22:58.148Z,9.443687
2022-07-29T09:23:58.048Z,9.443701
2022-07-29T09:24:57.989Z,9.443573
2022-07-29T09:25:57.971Z,9.443684
2022-07-29T09:26:59.034Z,9.443726
2022-07-29T09:27:57.970Z,9.443772
2022-07-29T09:28:57.982Z,9.443788
2022-07-29T09:29:58.958Z,9.443694
2022-07-29T09:30:58.002Z,9.443737
2022-07-29T09:31:57.998Z,9.443744
2022-07-29T09:32:57.944Z,9.443706
2022-07-29T09:33:57.958Z,9.443770
2022-07-29T09:34:58.527Z,9.443702
2022-07-29T09:35:58.979Z,9.443724
2022-07-29T09:36:58.432Z,9.443711
2022-07-29T09:37:57.906Z,9.443684
2022-07-29T09:38:57.997Z,9.443725
2022-07-29T09:39:57.905Z,9.443669
2022-07-29T09:40:57.910Z,9.443666
2022-07-29T09:41:58.889Z,9.443620
2022-07-29T09:42:57.893Z,9.443704
2022-07-29T09:43:57.881Z,9.443685
2022-07-29T09:44:57.877Z,9.443810
2022-07-29T09:45:57.859Z,9.443740
2022-07-29T09:46:58.426Z,9.443782
2022-07-29T09:47:57.892Z,9.443700
2022-07-29T09:48:58.555Z,9.443742
2022-07-29T09:49:57.870Z,9.443754
2022-07-29T09:50:57.826Z,9.443641
2022-07-29T09:51:57.842Z,9.443607
2022-07-29T09:52:57.829Z,9.443723
2022-07-29T09:53:57.854Z,9.443746
2022-07-29T09:54:57.817Z,9.443635
2022-07-29T09:55:57.805Z,9.443804
2022-07-29T09:56:58.114Z,9.443709
2022-07-29T09:57:57.862Z,9.443837
2022-07-29T09:58:57.877Z,9.443732
2022-07-29T09:59:57.768Z,9.443754
2022-07-29T10:00:58.476Z,9.443763
2022-07-29T10:01:58.093Z,9.443667
2022-07-29T10:02:57.861Z,9.443714
2022-07-29T10:03:57.722Z,9.443728
2022-07-29T10:04:58.737Z,9.443716
2022-07-29T10:05:57.726Z,9.443727
2022-07-29T10:07:03.816Z,9.443717
2022-07-29T10:07:59.745Z,9.443657
2022-07-29T10:08:57.701Z,9.443680
2022-07-29T10:09:57.694Z,9.443738
2022-07-29T10:10:57.755Z,9.443723
2022-07-29T10:11:57.816Z,9.443711
2022-07-29T10:12:58.023Z,9.443697
2022-07-29T10:13:58.713Z,9.443677
2022-07-29T10:14:57.651Z,9.443737
2022-07-29T10:15:57.678Z,9.443686
2022-07-29T10:16:57.675Z,9.443616
2022-07-29T10:17:58.538Z,9.443649
2022-07-29T10:18:57.674Z,9.443631
2022-07-29T10:19:57.654Z,9.443670
2022-07-29T10:20:58.412Z,9.443656
2022-07-29T10:21:58.342Z,9.443648
2022-07-29T10:22:58.672Z,9.443697
2022-07-29T10:23:59.586Z,9.443628
2022-07-29T10:24:57.615Z,9.443690
2022-07-29T10:25:57.595Z,9.443652
2022-07-29T10:26:57.606Z,9.443623
2022-07-29T10:27:57.593Z,9.443549
2022-07-29T10:28:57.566Z,9.443588
2022-07-29T10:29:57.572Z,9.443637
2022-07-29T10:30:57.695Z,9.443583
2022-07-29T10:31:57.880Z,9.443598
2022-07-29T10:32:57.546Z,9.443655
2022-07-29T10:33:57.563Z,9.443659
2022-07-29T10:34:57.588Z,9.443686
2022-07-29T10:35:57.538Z,9.443616
2022-07-29T10:36:57.556Z,9.443788
2022-07-29T10:37:57.630Z,9.443826
2022-07-29T10:38:57.567Z,9.443865
2022-07-29T10:39:57.520Z,9.443864
2022-07-29T10:40:57.512Z,9.443747
2022-07-29T10:41:57.854Z,9.443686
2022-07-29T10:42:57.519Z,9.443747
2022-07-29T10:43:57.514Z,9.443789
2022-07-29T10:44:57.525Z,9.443753
2022-07-29T10:45:57.721Z,9.443651
2022-07-29T10:46:57.575Z,9.443716
2022-07-29T10:47:58.518Z,9.443770
2022-07-29T10:48:57.548Z,9.443854
2022-07-29T10:49:57.487Z,9.443914
2022-07-29T10:50:58.022Z,9.443899
2022-07-29T10:51:58.111Z,9.443823
2022-07-29T10:52:57.535Z,9.443839
2022-07-29T10:53:57.448Z,9.443830
2022-07-29T10:54:57.535Z,9.443931
2022-07-29T10:55:57.432Z,9.443854
2022-07-29T10:56:57.438Z,9.443846
2022-07-29T10:57:57.447Z,9.443945
2022-07-29T10:58:57.522Z,9.443946
2022-07-29T10:59:57.416Z,9.443920
2022-07-29T11:00:57.557Z,9.443820
2022-07-29T11:02:27.836Z,9.443730
2022-07-29T11:02:59.582Z,9.443738
2022-07-29T11:03:57.413Z,9.443820
2022-07-29T11:04:57.401Z,9.443739
2022-07-29T11:05:59.867Z,9.443718
2022-07-29T11:06:57.448Z,9.443725
2022-07-29T11:07:57.395Z,9.443820
2022-07-29T11:08:57.428Z,9.443782
2022-07-29T11:09:57.417Z,9.443635
2022-07-29T11:10:57.420Z,9.443533
2022-07-29T11:11:58.367Z,9.443692
2022-07-29T11:12:57.351Z,9.443791
2022-07-29T11:13:57.414Z,9.443756
2022-07-29T11:14:58.403Z,9.443800
2022-07-29T11:15:58.042Z,9.443794
2022-07-29T11:16:57.355Z,9.443730
2022-07-29T11:17:59.464Z,9.443720
2022-07-29T11:18:57.315Z,9.443795
2022-07-29T11:19:57.306Z,9.443757
2022-07-29T11:20:57.307Z,9.443789
2022-07-29T11:21:58.591Z,9.443748
2022-07-29T11:22:57.310Z,9.443771
2022-07-29T11:23:57.295Z,9.443778
2022-07-29T11:24:57.979Z,9.443769
2022-07-29T11:25:57.298Z,9.443731
2022-07-29T11:27:00.475Z,9.443740
2022-07-29T11:27:58.343Z,9.443744
2022-07-29T11:28:57.286Z,9.443764
2022-07-29T11:29:58.661Z,9.443785
2022-07-29T11:30:57.846Z,9.443798
2022-07-29T11:31:57.456Z,9.443761
2022-07-29T11:32:57.324Z,9.443737
2022-07-29T11:33:57.998Z,9.443748
2022-07-29T11:34:57.201Z,9.443753
2022-07-29T11:36:00.868Z,9.443713
2022-07-29T11:36:58.456Z,9.443745
2022-07-29T11:37:58.201Z,9.443737
2022-07-29T11:38:57.200Z,9.443742
2022-07-29T11:40:01.482Z,9.443745
2022-07-29T11:40:59.160Z,9.443760
2022-07-29T11:42:00.463Z,9.443801
2022-07-29T11:42:58.325Z,9.443739
2022-07-29T11:43:57.183Z,9.443713